createdAt,value
2023-03-12T10:59:25.664Z,98.14
2023-03-12T11:00:29.307Z,96.52
2023-03-12T11:01:32.185Z,95.08
2023-03-12T12:01:57.923Z,88.66
2023-03-12T13:33:40.539Z,82.52
2023-03-12T13:34:45.755Z,82.11
2023-03-12T13:36:12.121Z,81.14
2023-03-12T13:37:28.759Z,78.77
2023-03-12T13:38:52.841Z,78.92
2023-03-12T13:39:54.257Z,79.21
2023-03-12T13:41:02.344Z,80.75
2023-03-12T13:42:28.234Z,80.56
2023-03-12T14:13:49.109Z,90.19
2023-03-12T14:15:18.669Z,87.64
2023-03-12T14:16:34.241Z,88.05
2023-03-12T14:17:37.852Z,87.53
2023-03-12T14:18:43.771Z,86.59
2023-03-12T14:19:50.672Z,86.69
2023-03-12T14:20:59.305Z,86.49
2023-03-12T14:22:04.990Z,85.77
2023-03-12T14:23:13.146Z,85.06
2023-03-12T14:24:58.204Z,85.59
2023-03-12T14:26:04.159Z,85.38
2023-03-12T14:27:13.914Z,84.00
2023-03-12T14:28:24.034Z,83.92
2023-03-12T14:29:31.259Z,82.85
2023-03-12T14:30:57.037Z,81.74
2023-03-12T14:32:03.295Z,78.53
2023-03-12T14:33:05.459Z,77.91
2023-03-12T14:34:20.917Z,77.24
2023-03-12T14:35:37.254Z,75.11
2023-03-12T14:36:46.949Z,74.30
2023-03-12T14:38:11.609Z,75.03
2023-03-12T14:39:21.162Z,74.22
2023-03-12T14:40:53.325Z,73.95
2023-03-12T14:42:04.878Z,70.89
2023-03-12T14:43:29.279Z,71.93
2023-03-12T14:44:32.442Z,71.21
2023-03-12T14:45:40.091Z,70.63
2023-03-12T14:46:55.028Z,70.74
2023-03-12T14:47:58.550Z,70.60
2023-03-12T14:49:00.153Z,69.42
2023-03-12T14:50:01.672Z,71.45
2023-03-12T14:51:05.471Z,72.21
2023-03-12T14:52:08.187Z,72.18
2023-03-12T14:53:18.698Z,73.40
2023-03-12T14:54:24.072Z,73.15
2023-03-12T14:55:26.115Z,72.98
2023-03-12T14:56:35.834Z,72.98
2023-03-12T14:57:37.758Z,72.79
2023-03-12T14:58:48.030Z,71.87
2023-03-12T14:59:57.527Z,72.29
2023-03-12T15:01:03.303Z,72.42
2023-03-12T15:02:14.506Z,73.48
2023-03-12T15:03:17.453Z,73.79
2023-03-12T15:04:24.047Z,74.46
2023-03-12T15:05:26.670Z,75.56
2023-03-12T15:06:29.931Z,73.46
2023-03-12T15:07:39.758Z,73.15
2023-03-12T15:08:44.053Z,73.44
2023-03-12T15:09:50.016Z,74.36
2023-03-12T15:10:54.566Z,74.54
2023-03-12T15:12:07.866Z,74.49
2023-03-12T15:13:12.948Z,74.58
2023-03-12T15:14:15.963Z,75.55
2023-03-12T15:15:46.579Z,74.38
2023-03-12T15:16:49.050Z,73.92
2023-03-12T15:17:50.833Z,74.22
2023-03-12T15:18:53.035Z,74.43
2023-03-12T15:19:57.165Z,74.00
2023-03-12T15:21:01.523Z,74.13
2023-03-12T15:22:04.532Z,74.58
2023-03-12T15:23:07.456Z,74.28
2023-03-12T15:24:13.309Z,74.65
2023-03-12T15:25:20.899Z,75.12
2023-03-12T15:26:22.255Z,74.84
